Grand Valley, Colorado
Current Conditions -  °F | °C
As of 2:53 AM on Monday 20 Oct 2014 (Local Time) from KRIL Reporting Station
Clear Clear  
Wind Chill: 42°   Ceiling: Unl
Heat Index: 42°   Visibility: 10mi
Dew Point: 35°   Wind: 3mph
Humidity: 76%   Direction: 120°ESE
Pressure: 30.17"   Gusts: NA
Location:  39.5849°N, 108.085°W
Report Text: KRIL 200853Z AUTO 12003KT 10SM CLR 06/02 A3017 RMK AO2 SLP175 T00560017 53005
Loading
Personal Weather Stations






























Interactive Weather Map
Tropical Storm Tracking
New forecast layout! Learn more

10-Day Weather Forecast

Advertisements
Track Severe Weather on mobile